Central, Texas
Current Conditions -  °F | °C
As of 11:55 AM on Tuesday 21 Oct 2014 (Local Time) from KOCH Reporting Station
Clear Clear  
Wind Chill: 73°   Ceiling: Unl
Heat Index: 73°   Visibility: 10mi
Dew Point: 55°   Wind: 6mph
Humidity: 53%   Direction: 120°ESE
Pressure: 30.12"   Gusts: NA
Location:  31.426°N, 94.8655°W
Report Text: KOCH 211655Z AUTO 12005KT 10SM CLR 23/13 A3012 RMK AO1
Loading
Personal Weather Stations






























Interactive Weather Map
Tropical Storm Tracking
New forecast layout! Learn more

10-Day Weather Forecast

Advertisements
Track Severe Weather on mobile